sensor_id;sensor_type;location;lat;lon;timestamp;temperature;humidity
71668;DHT22;59504;54.806;9.640;2022-11-03T00:00:10;8.70;71.60
71668;DHT22;59504;54.806;9.640;2022-11-03T00:02:11;8.70;71.70
71668;DHT22;59504;54.806;9.640;2022-11-03T00:04:17;8.70;71.70
71668;DHT22;59504;54.806;9.640;2022-11-03T00:06:17;8.80;71.80
71668;DHT22;59504;54.806;9.640;2022-11-03T00:08:18;8.70;71.70
71668;DHT22;59504;54.806;9.640;2022-11-03T00:10:19;8.90;71.90
71668;DHT22;59504;54.806;9.640;2022-11-03T00:12:19;8.70;71.70
71668;DHT22;59504;54.806;9.640;2022-11-03T00:14:20;8.70;71.80
71668;DHT22;59504;54.806;9.640;2022-11-03T00:16:21;8.80;71.90
71668;DHT22;59504;54.806;9.640;2022-11-03T00:18:21;8.70;71.80
71668;DHT22;59504;54.806;9.640;2022-11-03T00:20:22;8.70;71.70
71668;DHT22;59504;54.806;9.640;2022-11-03T00:22:23;8.70;71.70
71668;DHT22;59504;54.806;9.640;2022-11-03T00:24:23;8.80;71.70
71668;DHT22;59504;54.806;9.640;2022-11-03T00:26:28;8.70;71.70
71668;DHT22;59504;54.806;9.640;2022-11-03T00:28:32;8.80;71.70
71668;DHT22;59504;54.806;9.640;2022-11-03T00:30:33;8.80;71.60
71668;DHT22;59504;54.806;9.640;2022-11-03T00:32:33;8.70;71.50
71668;DHT22;59504;54.806;9.640;2022-11-03T00:34:34;8.70;71.40
71668;DHT22;59504;54.806;9.640;2022-11-03T00:36:40;8.70;71.40
71668;DHT22;59504;54.806;9.640;2022-11-03T00:38:43;8.70;71.40
71668;DHT22;59504;54.806;9.640;2022-11-03T00:40:43;8.70;71.30
71668;DHT22;59504;54.806;9.640;2022-11-03T00:42:45;8.70;71.30
71668;DHT22;59504;54.806;9.640;2022-11-03T00:44:45;8.80;71.60
71668;DHT22;59504;54.806;9.640;2022-11-03T00:46:46;8.60;71.20
71668;DHT22;59504;54.806;9.640;2022-11-03T00:48:47;8.80;71.40
71668;DHT22;59504;54.806;9.640;2022-11-03T00:50:48;8.70;71.30
71668;DHT22;59504;54.806;9.640;2022-11-03T00:52:48;8.70;71.30
71668;DHT22;59504;54.806;9.640;2022-11-03T00:54:49;8.80;71.40
71668;DHT22;59504;54.806;9.640;2022-11-03T00:56:50;8.70;71.20
71668;DHT22;59504;54.806;9.640;2022-11-03T00:58:51;8.70;71.30
71668;DHT22;59504;54.806;9.640;2022-11-03T01:01:07;8.60;71.20
71668;DHT22;59504;54.806;9.640;2022-11-03T01:03:08;8.70;71.30
71668;DHT22;59504;54.806;9.640;2022-11-03T01:05:09;8.70;71.30
71668;DHT22;59504;54.806;9.640;2022-11-03T01:07:28;8.70;71.30
71668;DHT22;59504;54.806;9.640;2022-11-03T01:09:33;8.60;71.30
71668;DHT22;59504;54.806;9.640;2022-11-03T01:11:34;8.70;71.40
71668;DHT22;59504;54.806;9.640;2022-11-03T01:13:43;8.80;71.50
71668;DHT22;59504;54.806;9.640;2022-11-03T01:15:44;8.60;71.40
71668;DHT22;59504;54.806;9.640;2022-11-03T01:17:44;8.60;71.40
71668;DHT22;59504;54.806;9.640;2022-11-03T01:19:45;8.60;72.20
71668;DHT22;59504;54.806;9.640;2022-11-03T01:21:46;8.60;71.50
71668;DHT22;59504;54.806;9.640;2022-11-03T01:23:47;8.60;71.50
71668;DHT22;59504;54.806;9.640;2022-11-03T01:25:48;8.60;71.50
71668;DHT22;59504;54.806;9.640;2022-11-03T01:27:48;8.70;71.60
71668;DHT22;59504;54.806;9.640;2022-11-03T01:29:49;8.60;71.60
71668;DHT22;59504;54.806;9.640;2022-11-03T01:31:50;8.60;71.60
71668;DHT22;59504;54.806;9.640;2022-11-03T01:33:53;8.70;71.60
71668;DHT22;59504;54.806;9.640;2022-11-03T01:35:54;8.70;71.60
71668;DHT22;59504;54.806;9.640;2022-11-03T01:37:55;8.70;71.70
71668;DHT22;59504;54.806;9.640;2022-11-03T01:39:56;8.70;71.60
71668;DHT22;59504;54.806;9.640;2022-11-03T01:41:56;8.80;71.70
71668;DHT22;59504;54.806;9.640;2022-11-03T01:48:58;8.80;71.60
71668;DHT22;59504;54.806;9.640;2022-11-03T01:51:02;8.70;71.50
71668;DHT22;59504;54.806;9.640;2022-11-03T01:53:03;8.70;71.50
71668;DHT22;59504;54.806;9.640;2022-11-03T01:55:10;8.70;71.40
71668;DHT22;59504;54.806;9.640;2022-11-03T01:57:16;8.70;71.30
71668;DHT22;59504;54.806;9.640;2022-11-03T01:59:21;8.70;71.30
71668;DHT22;59504;54.806;9.640;2022-11-03T02:01:23;8.80;71.40
71668;DHT22;59504;54.806;9.640;2022-11-03T02:03:26;8.80;71.40
71668;DHT22;59504;54.806;9.640;2022-11-03T02:05:28;8.80;71.40
71668;DHT22;59504;54.806;9.640;2022-11-03T02:07:34;8.80;71.40
71668;DHT22;59504;54.806;9.640;2022-11-03T02:09:36;8.70;71.30
71668;DHT22;59504;54.806;9.640;2022-11-03T02:11:37;8.80;71.40
71668;DHT22;59504;54.806;9.640;2022-11-03T02:13:57;8.80;71.40
71668;DHT22;59504;54.806;9.640;2022-11-03T02:15:58;8.80;71.30
71668;DHT22;59504;54.806;9.640;2022-11-03T02:17:59;8.80;71.30
71668;DHT22;59504;54.806;9.640;2022-11-03T02:22:36;8.80;71.20
71668;DHT22;59504;54.806;9.640;2022-11-03T02:26:54;8.80;71.10
71668;DHT22;59504;54.806;9.640;2022-11-03T02:29:15;8.80;71.10
71668;DHT22;59504;54.806;9.640;2022-11-03T02:31:42;8.80;71.10
71668;DHT22;59504;54.806;9.640;2022-11-03T02:33:52;8.80;71.00
71668;DHT22;59504;54.806;9.640;2022-11-03T02:36:22;8.80;71.10
71668;DHT22;59504;54.806;9.640;2022-11-03T02:39:04;8.80;71.10
71668;DHT22;59504;54.806;9.640;2022-11-03T02:41:07;8.80;71.00
71668;DHT22;59504;54.806;9.640;2022-11-03T02:43:09;8.80;71.00
71668;DHT22;59504;54.806;9.640;2022-11-03T02:45:13;8.90;71.10
71668;DHT22;59504;54.806;9.640;2022-11-03T02:47:16;8.80;71.70
71668;DHT22;59504;54.806;9.640;2022-11-03T02:49:45;8.80;71.00
71668;DHT22;59504;54.806;9.640;2022-11-03T02:51:46;8.80;71.00
71668;DHT22;59504;54.806;9.640;2022-11-03T02:54:23;8.80;71.00
71668;DHT22;59504;54.806;9.640;2022-11-03T02:56:25;8.80;71.10
71668;DHT22;59504;54.806;9.640;2022-11-03T02:59:01;8.80;71.10
71668;DHT22;59504;54.806;9.640;2022-11-03T03:01:35;8.80;71.10
71668;DHT22;59504;54.806;9.640;2022-11-03T03:04:08;8.80;71.00
71668;DHT22;59504;54.806;9.640;2022-11-03T03:06:33;8.80;71.00
71668;DHT22;59504;54.806;9.640;2022-11-03T03:08:59;8.80;71.00
71668;DHT22;59504;54.806;9.640;2022-11-03T03:11:21;8.80;71.00
71668;DHT22;59504;54.806;9.640;2022-11-03T03:13:56;8.80;71.00
71668;DHT22;59504;54.806;9.640;2022-11-03T03:16:25;8.90;71.00
71668;DHT22;59504;54.806;9.640;2022-11-03T03:18:50;8.80;71.00
71668;DHT22;59504;54.806;9.640;2022-11-03T03:21:25;8.90;71.00
71668;DHT22;59504;54.806;9.640;2022-11-03T03:24:27;8.80;70.90
71668;DHT22;59504;54.806;9.640;2022-11-03T03:26:44;8.80;70.90
71668;DHT22;59504;54.806;9.640;2022-11-03T03:29:10;8.80;70.90
71668;DHT22;59504;54.806;9.640;2022-11-03T03:31:34;8.70;70.80
71668;DHT22;59504;54.806;9.640;2022-11-03T03:33:56;8.70;70.80
71668;DHT22;59504;54.806;9.640;2022-11-03T03:36:20;8.70;70.90
71668;DHT22;59504;54.806;9.640;2022-11-03T03:38:57;8.70;70.90
71668;DHT22;59504;54.806;9.640;2022-11-03T03:41:21;8.70;70.90
71668;DHT22;59504;54.806;9.640;2022-11-03T03:43:43;8.70;70.90
71668;DHT22;59504;54.806;9.640;2022-11-03T03:46:06;8.70;70.90
71668;DHT22;59504;54.806;9.640;2022-11-03T03:48:27;8.70;70.90
71668;DHT22;59504;54.806;9.640;2022-11-03T03:50:48;8.70;71.00
71668;DHT22;59504;54.806;9.640;2022-11-03T03:53:11;8.70;70.80
71668;DHT22;59504;54.806;9.640;2022-11-03T03:55:36;8.80;71.00
71668;DHT22;59504;54.806;9.640;2022-11-03T03:57:57;8.70;70.90
71668;DHT22;59504;54.806;9.640;2022-11-03T04:00:17;8.70;70.90
71668;DHT22;59504;54.806;9.640;2022-11-03T04:02:38;8.70;71.00
71668;DHT22;59504;54.806;9.640;2022-11-03T04:04:59;8.70;71.00
71668;DHT22;59504;54.806;9.640;2022-11-03T04:07:20;8.70;71.10
71668;DHT22;59504;54.806;9.640;2022-11-03T04:09:59;8.70;71.10
71668;DHT22;59504;54.806;9.640;2022-11-03T04:12:19;8.70;71.10
71668;DHT22;59504;54.806;9.640;2022-11-03T04:14:59;8.70;71.10
71668;DHT22;59504;54.806;9.640;2022-11-03T04:17:44;8.70;71.20
71668;DHT22;59504;54.806;9.640;2022-11-03T04:20:10;8.70;71.10
71668;DHT22;59504;54.806;9.640;2022-11-03T04:22:32;8.70;71.20
71668;DHT22;59504;54.806;9.640;2022-11-03T04:24:33;8.70;71.20
71668;DHT22;59504;54.806;9.640;2022-11-03T04:26:33;8.70;71.20
71668;DHT22;59504;54.806;9.640;2022-11-03T04:28:34;8.70;71.20
71668;DHT22;59504;54.806;9.640;2022-11-03T04:30:35;8.70;72.00
71668;DHT22;59504;54.806;9.640;2022-11-03T04:32:36;8.80;71.30
71668;DHT22;59504;54.806;9.640;2022-11-03T04:34:36;8.70;72.00
71668;DHT22;59504;54.806;9.640;2022-11-03T04:36:37;8.60;71.20
71668;DHT22;59504;54.806;9.640;2022-11-03T04:38:38;8.60;71.20
71668;DHT22;59504;54.806;9.640;2022-11-03T04:40:46;8.70;71.30
71668;DHT22;59504;54.806;9.640;2022-11-03T04:42:47;8.60;71.30
71668;DHT22;59504;54.806;9.640;2022-11-03T04:44:50;8.60;71.30
71668;DHT22;59504;54.806;9.640;2022-11-03T04:46:53;8.60;71.30
71668;DHT22;59504;54.806;9.640;2022-11-03T04:49:20;8.60;72.00
71668;DHT22;59504;54.806;9.640;2022-11-03T04:51:26;8.60;71.30
71668;DHT22;59504;54.806;9.640;2022-11-03T04:53:55;8.60;71.30
71668;DHT22;59504;54.806;9.640;2022-11-03T04:56:21;8.60;71.30
71668;DHT22;59504;54.806;9.640;2022-11-03T04:58:39;8.60;71.30
71668;DHT22;59504;54.806;9.640;2022-11-03T05:01:00;8.70;71.30
71668;DHT22;59504;54.806;9.640;2022-11-03T05:03:26;8.60;71.30
71668;DHT22;59504;54.806;9.640;2022-11-03T05:05:42;8.60;71.30
71668;DHT22;59504;54.806;9.640;2022-11-03T05:08:07;8.60;71.30
71668;DHT22;59504;54.806;9.640;2022-11-03T05:10:29;8.60;71.30
71668;DHT22;59504;54.806;9.640;2022-11-03T05:12:49;8.60;71.30
71668;DHT22;59504;54.806;9.640;2022-11-03T05:15:36;8.60;71.30
71668;DHT22;59504;54.806;9.640;2022-11-03T05:17:58;8.60;71.30
71668;DHT22;59504;54.806;9.640;2022-11-03T05:20:36;8.60;71.40
71668;DHT22;59504;54.806;9.640;2022-11-03T05:22:59;8.60;71.30
71668;DHT22;59504;54.806;9.640;2022-11-03T05:25:36;8.60;71.30
71668;DHT22;59504;54.806;9.640;2022-11-03T05:27:59;8.60;71.40
71668;DHT22;59504;54.806;9.640;2022-11-03T05:30:20;8.60;71.40
71668;DHT22;59504;54.806;9.640;2022-11-03T05:32:41;8.60;71.40
71668;DHT22;59504;54.806;9.640;2022-11-03T05:35:01;8.50;71.30
71668;DHT22;59504;54.806;9.640;2022-11-03T05:37:29;8.50;71.30
71668;DHT22;59504;54.806;9.640;2022-11-03T05:39:51;8.70;71.50
71668;DHT22;59504;54.806;9.640;2022-11-03T05:44:42;8.50;71.30
71668;DHT22;59504;54.806;9.640;2022-11-03T05:47:28;8.50;71.30
71668;DHT22;59504;54.806;9.640;2022-11-03T05:49:54;8.50;71.30
71668;DHT22;59504;54.806;9.640;2022-11-03T05:52:24;8.50;71.30
71668;DHT22;59504;54.806;9.640;2022-11-03T05:54:45;8.50;71.30
71668;DHT22;59504;54.806;9.640;2022-11-03T05:57:16;8.50;71.30
71668;DHT22;59504;54.806;9.640;2022-11-03T05:59:37;8.50;71.30
71668;DHT22;59504;54.806;9.640;2022-11-03T06:01:58;8.50;71.30
71668;DHT22;59504;54.806;9.640;2022-11-03T06:06:50;8.50;71.40
71668;DHT22;59504;54.806;9.640;2022-11-03T06:09:18;8.50;71.40
71668;DHT22;59504;54.806;9.640;2022-11-03T06:11:43;8.50;71.40
71668;DHT22;59504;54.806;9.640;2022-11-03T06:14:23;8.50;71.50
71668;DHT22;59504;54.806;9.640;2022-11-03T06:16:47;8.50;71.50
71668;DHT22;59504;54.806;9.640;2022-11-03T06:19:30;8.50;71.40
71668;DHT22;59504;54.806;9.640;2022-11-03T06:21:55;8.50;71.40
71668;DHT22;59504;54.806;9.640;2022-11-03T06:24:17;8.50;71.40
71668;DHT22;59504;54.806;9.640;2022-11-03T06:26:37;8.50;71.40
71668;DHT22;59504;54.806;9.640;2022-11-03T06:28:58;8.50;71.40
71668;DHT22;59504;54.806;9.640;2022-11-03T06:31:26;8.50;71.40
71668;DHT22;59504;54.806;9.640;2022-11-03T06:33:47;8.50;71.50
71668;DHT22;59504;54.806;9.640;2022-11-03T06:36:29;8.50;71.40
71668;DHT22;59504;54.806;9.640;2022-11-03T06:39:03;8.50;71.50
71668;DHT22;59504;54.806;9.640;2022-11-03T06:41:30;8.50;71.50
71668;DHT22;59504;54.806;9.640;2022-11-03T06:43:51;8.50;71.50
71668;DHT22;59504;54.806;9.640;2022-11-03T06:46:19;8.60;71.60
71668;DHT22;59504;54.806;9.640;2022-11-03T06:48:38;8.50;71.60
71668;DHT22;59504;54.806;9.640;2022-11-03T06:50:58;8.60;71.60
71668;DHT22;59504;54.806;9.640;2022-11-03T06:53:21;8.50;71.60
71668;DHT22;59504;54.806;9.640;2022-11-03T06:55:42;8.50;71.70
71668;DHT22;59504;54.806;9.640;2022-11-03T07:01:09;8.50;71.80
71668;DHT22;59504;54.806;9.640;2022-11-03T07:03:26;8.60;71.90
71668;DHT22;59504;54.806;9.640;2022-11-03T07:05:31;8.60;71.90
71668;DHT22;59504;54.806;9.640;2022-11-03T07:07:32;8.70;72.00
71668;DHT22;59504;54.806;9.640;2022-11-03T07:09:33;8.60;72.00
71668;DHT22;59504;54.806;9.640;2022-11-03T07:11:36;8.60;72.00
71668;DHT22;59504;54.806;9.640;2022-11-03T07:13:40;8.70;72.10
71668;DHT22;59504;54.806;9.640;2022-11-03T07:15:43;8.70;72.10
71668;DHT22;59504;54.806;9.640;2022-11-03T07:17:44;8.80;72.20
71668;DHT22;59504;54.806;9.640;2022-11-03T07:20:12;8.70;72.10
71668;DHT22;59504;54.806;9.640;2022-11-03T07:22:21;8.80;72.10
71668;DHT22;59504;54.806;9.640;2022-11-03T07:24:55;8.80;72.10
71668;DHT22;59504;54.806;9.640;2022-11-03T07:27:14;8.80;72.10
71668;DHT22;59504;54.806;9.640;2022-11-03T07:29:23;8.90;72.10
71668;DHT22;59504;54.806;9.640;2022-11-03T07:31:25;8.90;72.10
71668;DHT22;59504;54.806;9.640;2022-11-03T07:33:34;8.90;72.00
71668;DHT22;59504;54.806;9.640;2022-11-03T07:35:44;9.10;72.10
71668;DHT22;59504;54.806;9.640;2022-11-03T07:38:13;9.00;72.00
71668;DHT22;59504;54.806;9.640;2022-11-03T07:40:21;9.00;71.90
71668;DHT22;59504;54.806;9.640;2022-11-03T07:42:43;9.00;71.90
71668;DHT22;59504;54.806;9.640;2022-11-03T07:45:39;9.10;71.80
71668;DHT22;59504;54.806;9.640;2022-11-03T07:50:30;9.10;71.60
71668;DHT22;59504;54.806;9.640;2022-11-03T07:52:42;9.20;71.60
71668;DHT22;59504;54.806;9.640;2022-11-03T07:55:08;9.20;71.50
71668;DHT22;59504;54.806;9.640;2022-11-03T07:57:31;9.20;71.40
71668;DHT22;59504;54.806;9.640;2022-11-03T08:02:00;9.20;71.30
71668;DHT22;59504;54.806;9.640;2022-11-03T08:04:28;9.30;71.30
71668;DHT22;59504;54.806;9.640;2022-11-03T08:06:49;9.30;71.20
71668;DHT22;59504;54.806;9.640;2022-11-03T08:09:10;9.30;71.20
71668;DHT22;59504;54.806;9.640;2022-11-03T08:11:32;9.30;71.10
71668;DHT22;59504;54.806;9.640;2022-11-03T08:13:52;9.30;71.00
71668;DHT22;59504;54.806;9.640;2022-11-03T08:16:13;9.30;71.00
71668;DHT22;59504;54.806;9.640;2022-11-03T08:18:34;9.40;71.00
71668;DHT22;59504;54.806;9.640;2022-11-03T08:20:56;9.40;71.00
71668;DHT22;59504;54.806;9.640;2022-11-03T08:23:16;9.40;71.00
71668;DHT22;59504;54.806;9.640;2022-11-03T08:25:38;9.40;71.00
71668;DHT22;59504;54.806;9.640;2022-11-03T08:27:58;9.40;71.00
71668;DHT22;59504;54.806;9.640;2022-11-03T08:30:21;9.40;71.00
71668;DHT22;59504;54.806;9.640;2022-11-03T08:32:41;9.40;71.00
71668;DHT22;59504;54.806;9.640;2022-11-03T08:35:02;9.40;71.00
71668;DHT22;59504;54.806;9.640;2022-11-03T08:37:23;9.50;71.10
71668;DHT22;59504;54.806;9.640;2022-11-03T08:39:43;9.50;71.20
71668;DHT22;59504;54.806;9.640;2022-11-03T08:42:04;9.50;71.20
71668;DHT22;59504;54.806;9.640;2022-11-03T08:44:24;9.50;71.10
71668;DHT22;59504;54.806;9.640;2022-11-03T08:46:45;9.60;71.20
71668;DHT22;59504;54.806;9.640;2022-11-03T08:49:05;9.60;71.20
71668;DHT22;59504;54.806;9.640;2022-11-03T08:51:26;9.60;71.10
71668;DHT22;59504;54.806;9.640;2022-11-03T08:53:47;9.70;71.20
71668;DHT22;59504;54.806;9.640;2022-11-03T08:56:11;9.70;71.20
71668;DHT22;59504;54.806;9.640;2022-11-03T08:58:32;9.70;71.20
71668;DHT22;59504;54.806;9.640;2022-11-03T09:00:53;9.70;71.20
71668;DHT22;59504;54.806;9.640;2022-11-03T09:03:13;9.80;71.20
71668;DHT22;59504;54.806;9.640;2022-11-03T09:05:34;9.90;71.30
71668;DHT22;59504;54.806;9.640;2022-11-03T09:07:55;9.90;71.30
71668;DHT22;59504;54.806;9.640;2022-11-03T09:10:16;10.00;71.30
71668;DHT22;59504;54.806;9.640;2022-11-03T09:12:36;10.00;71.20
71668;DHT22;59504;54.806;9.640;2022-11-03T09:14:57;10.00;71.30
71668;DHT22;59504;54.806;9.640;2022-11-03T09:17:18;10.00;71.00
71668;DHT22;59504;54.806;9.640;2022-11-03T09:19:38;10.10;71.10
71668;DHT22;59504;54.806;9.640;2022-11-03T09:21:59;10.10;71.10
71668;DHT22;59504;54.806;9.640;2022-11-03T09:24:19;10.20;71.10
71668;DHT22;59504;54.806;9.640;2022-11-03T09:26:40;10.20;71.10
71668;DHT22;59504;54.806;9.640;2022-11-03T09:29:01;10.20;71.10
71668;DHT22;59504;54.806;9.640;2022-11-03T09:31:21;10.30;71.00
71668;DHT22;59504;54.806;9.640;2022-11-03T09:33:45;10.40;71.10
71668;DHT22;59504;54.806;9.640;2022-11-03T09:36:06;10.50;71.10
71668;DHT22;59504;54.806;9.640;2022-11-03T09:38:26;10.50;71.00
71668;DHT22;59504;54.806;9.640;2022-11-03T09:40:47;10.60;70.90
71668;DHT22;59504;54.806;9.640;2022-11-03T09:43:08;10.60;70.90
71668;DHT22;59504;54.806;9.640;2022-11-03T09:45:27;10.60;70.80
71668;DHT22;59504;54.806;9.640;2022-11-03T09:47:46;10.70;70.60
71668;DHT22;59504;54.806;9.640;2022-11-03T09:50:09;10.80;70.70
71668;DHT22;59504;54.806;9.640;2022-11-03T09:52:30;10.80;70.60
71668;DHT22;59504;54.806;9.640;2022-11-03T09:54:51;10.80;70.60
71668;DHT22;59504;54.806;9.640;2022-11-03T09:57:14;10.90;70.60
71668;DHT22;59504;54.806;9.640;2022-11-03T09:59:36;10.90;70.60
71668;DHT22;59504;54.806;9.640;2022-11-03T10:01:55;11.10;70.60
71668;DHT22;59504;54.806;9.640;2022-11-03T10:04:16;11.10;70.50
71668;DHT22;59504;54.806;9.640;2022-11-03T10:06:38;11.20;70.40
71668;DHT22;59504;54.806;9.640;2022-11-03T10:08:57;11.10;70.90
71668;DHT22;59504;54.806;9.640;2022-11-03T10:11:17;11.20;70.10
71668;DHT22;59504;54.806;9.640;2022-11-03T10:13:42;11.30;70.10
71668;DHT22;59504;54.806;9.640;2022-11-03T10:16:06;11.30;69.90
71668;DHT22;59504;54.806;9.640;2022-11-03T10:18:27;11.40;69.70
71668;DHT22;59504;54.806;9.640;2022-11-03T10:20:47;11.40;69.60
71668;DHT22;59504;54.806;9.640;2022-11-03T10:23:07;11.40;69.40
71668;DHT22;59504;54.806;9.640;2022-11-03T10:25:43;11.50;69.40
71668;DHT22;59504;54.806;9.640;2022-11-03T10:28:24;11.50;69.20
71668;DHT22;59504;54.806;9.640;2022-11-03T10:30:53;11.50;69.20
71668;DHT22;59504;54.806;9.640;2022-11-03T10:33:33;11.60;69.10
71668;DHT22;59504;54.806;9.640;2022-11-03T10:35:52;11.70;69.00
71668;DHT22;59504;54.806;9.640;2022-11-03T10:38:34;11.70;69.00
71668;DHT22;59504;54.806;9.640;2022-11-03T10:40:54;11.70;68.70
71668;DHT22;59504;54.806;9.640;2022-11-03T10:43:14;11.80;69.00
71668;DHT22;59504;54.806;9.640;2022-11-03T10:45:33;11.90;69.00
71668;DHT22;59504;54.806;9.640;2022-11-03T10:47:59;11.80;68.90
71668;DHT22;59504;54.806;9.640;2022-11-03T10:50:25;11.90;68.80
71668;DHT22;59504;54.806;9.640;2022-11-03T10:52:44;12.00;68.70
71668;DHT22;59504;54.806;9.640;2022-11-03T10:55:04;11.90;69.40
71668;DHT22;59504;54.806;9.640;2022-11-03T10:57:24;11.90;68.50
71668;DHT22;59504;54.806;9.640;2022-11-03T10:59:46;12.00;68.40
71668;DHT22;59504;54.806;9.640;2022-11-03T11:02:24;12.10;68.30
71668;DHT22;59504;54.806;9.640;2022-11-03T11:04:48;12.10;67.90
71668;DHT22;59504;54.806;9.640;2022-11-03T11:07:22;12.10;68.00
71668;DHT22;59504;54.806;9.640;2022-11-03T11:09:44;12.10;67.80
71668;DHT22;59504;54.806;9.640;2022-11-03T11:12:15;12.10;67.90
71668;DHT22;59504;54.806;9.640;2022-11-03T11:14:37;12.20;67.70
71668;DHT22;59504;54.806;9.640;2022-11-03T11:16:58;12.20;67.70
71668;DHT22;59504;54.806;9.640;2022-11-03T11:19:18;12.20;67.70
71668;DHT22;59504;54.806;9.640;2022-11-03T11:23:57;12.20;67.50
71668;DHT22;59504;54.806;9.640;2022-11-03T11:28:45;12.40;67.40
71668;DHT22;59504;54.806;9.640;2022-11-03T11:31:30;12.30;67.30
71668;DHT22;59504;54.806;9.640;2022-11-03T11:33:49;12.30;67.00
71668;DHT22;59504;54.806;9.640;2022-11-03T11:36:23;12.40;67.00
71668;DHT22;59504;54.806;9.640;2022-11-03T11:41:10;12.50;67.30
71668;DHT22;59504;54.806;9.640;2022-11-03T11:43:29;12.40;67.30
71668;DHT22;59504;54.806;9.640;2022-11-03T11:48:39;12.50;67.20
71668;DHT22;59504;54.806;9.640;2022-11-03T11:50:58;12.60;67.50
71668;DHT22;59504;54.806;9.640;2022-11-03T11:53:20;12.50;67.30
71668;DHT22;59504;54.806;9.640;2022-11-03T11:58:24;12.50;67.00
71668;DHT22;59504;54.806;9.640;2022-11-03T12:00:56;12.50;66.70
71668;DHT22;59504;54.806;9.640;2022-11-03T12:03:15;12.60;66.80
71668;DHT22;59504;54.806;9.640;2022-11-03T12:05:35;12.70;66.90
71668;DHT22;59504;54.806;9.640;2022-11-03T12:07:54;12.60;66.70
71668;DHT22;59504;54.806;9.640;2022-11-03T12:10:28;12.60;66.60
71668;DHT22;59504;54.806;9.640;2022-11-03T12:12:48;12.60;66.50
71668;DHT22;59504;54.806;9.640;2022-11-03T12:18:34;12.60;66.30
71668;DHT22;59504;54.806;9.640;2022-11-03T12:20:53;12.60;66.30
71668;DHT22;59504;54.806;9.640;2022-11-03T12:23:52;12.70;66.50
71668;DHT22;59504;54.806;9.640;2022-11-03T12:28:44;12.70;66.40
71668;DHT22;59504;54.806;9.640;2022-11-03T12:31:04;12.70;66.30
71668;DHT22;59504;54.806;9.640;2022-11-03T12:33:23;12.80;66.40
71668;DHT22;59504;54.806;9.640;2022-11-03T12:35:42;12.70;66.30
71668;DHT22;59504;54.806;9.640;2022-11-03T12:38:01;12.70;66.40
71668;DHT22;59504;54.806;9.640;2022-11-03T12:40:21;12.70;66.40
71668;DHT22;59504;54.806;9.640;2022-11-03T12:42:40;12.70;66.30
71668;DHT22;59504;54.806;9.640;2022-11-03T12:44:59;12.70;66.40
71668;DHT22;59504;54.806;9.640;2022-11-03T12:47:19;12.70;66.40
71668;DHT22;59504;54.806;9.640;2022-11-03T12:49:38;12.80;66.40
71668;DHT22;59504;54.806;9.640;2022-11-03T12:51:57;12.80;66.40
71668;DHT22;59504;54.806;9.640;2022-11-03T12:54:23;12.70;66.30
71668;DHT22;59504;54.806;9.640;2022-11-03T12:56:43;12.70;66.30
71668;DHT22;59504;54.806;9.640;2022-11-03T12:59:02;12.70;66.20
71668;DHT22;59504;54.806;9.640;2022-11-03T13:01:22;12.70;66.20
71668;DHT22;59504;54.806;9.640;2022-11-03T13:03:41;12.80;66.30
71668;DHT22;59504;54.806;9.640;2022-11-03T13:06:03;12.80;66.30
71668;DHT22;59504;54.806;9.640;2022-11-03T13:08:23;12.70;66.30
71668;DHT22;59504;54.806;9.640;2022-11-03T13:10:50;12.80;66.40
71668;DHT22;59504;54.806;9.640;2022-11-03T13:13:11;12.80;66.40
71668;DHT22;59504;54.806;9.640;2022-11-03T13:15:30;12.80;66.50
71668;DHT22;59504;54.806;9.640;2022-11-03T13:17:50;12.70;66.50
71668;DHT22;59504;54.806;9.640;2022-11-03T13:20:10;12.80;66.70
71668;DHT22;59504;54.806;9.640;2022-11-03T13:22:32;12.80;66.90
71668;DHT22;59504;54.806;9.640;2022-11-03T13:24:51;12.80;67.00
71668;DHT22;59504;54.806;9.640;2022-11-03T13:27:10;12.80;67.00
71668;DHT22;59504;54.806;9.640;2022-11-03T13:29:30;13.00;67.20
71668;DHT22;59504;54.806;9.640;2022-11-03T13:31:50;12.90;67.10
71668;DHT22;59504;54.806;9.640;2022-11-03T13:34:09;12.90;67.10
71668;DHT22;59504;54.806;9.640;2022-11-03T13:36:28;12.90;67.10
71668;DHT22;59504;54.806;9.640;2022-11-03T13:38:48;13.00;67.20
71668;DHT22;59504;54.806;9.640;2022-11-03T13:41:07;13.00;67.10
71668;DHT22;59504;54.806;9.640;2022-11-03T13:43:26;13.10;67.10
71668;DHT22;59504;54.806;9.640;2022-11-03T13:45:49;13.10;67.00
71668;DHT22;59504;54.806;9.640;2022-11-03T13:48:09;13.10;66.90
71668;DHT22;59504;54.806;9.640;2022-11-03T13:50:28;13.10;66.90
71668;DHT22;59504;54.806;9.640;2022-11-03T13:52:47;13.20;66.90
71668;DHT22;59504;54.806;9.640;2022-11-03T13:55:06;13.20;66.70
71668;DHT22;59504;54.806;9.640;2022-11-03T13:57:25;13.20;66.60
71668;DHT22;59504;54.806;9.640;2022-11-03T13:59:44;13.30;67.20
71668;DHT22;59504;54.806;9.640;2022-11-03T14:02:04;13.20;66.50
71668;DHT22;59504;54.806;9.640;2022-11-03T14:04:24;13.20;66.40
71668;DHT22;59504;54.806;9.640;2022-11-03T14:06:43;13.30;66.40
71668;DHT22;59504;54.806;9.640;2022-11-03T14:09:02;13.30;66.30
71668;DHT22;59504;54.806;9.640;2022-11-03T14:11:21;13.30;66.20
71668;DHT22;59504;54.806;9.640;2022-11-03T14:13:59;13.40;66.20
71668;DHT22;59504;54.806;9.640;2022-11-03T14:16:18;13.30;66.00
71668;DHT22;59504;54.806;9.640;2022-11-03T14:18:37;13.30;65.80
71668;DHT22;59504;54.806;9.640;2022-11-03T14:20:57;13.30;65.70
71668;DHT22;59504;54.806;9.640;2022-11-03T14:23:16;13.30;65.60
71668;DHT22;59504;54.806;9.640;2022-11-03T14:25:35;13.30;65.50
71668;DHT22;59504;54.806;9.640;2022-11-03T14:27:54;13.30;65.30
71668;DHT22;59504;54.806;9.640;2022-11-03T14:30:14;13.40;65.30
71668;DHT22;59504;54.806;9.640;2022-11-03T14:32:34;13.30;65.10
71668;DHT22;59504;54.806;9.640;2022-11-03T14:34:53;13.20;65.00
71668;DHT22;59504;54.806;9.640;2022-11-03T14:37:12;13.20;64.90
71668;DHT22;59504;54.806;9.640;2022-11-03T14:39:32;13.20;64.90
71668;DHT22;59504;54.806;9.640;2022-11-03T14:41:51;13.20;64.80
71668;DHT22;59504;54.806;9.640;2022-11-03T14:44:23;13.10;64.80
71668;DHT22;59504;54.806;9.640;2022-11-03T14:46:42;13.20;64.80
71668;DHT22;59504;54.806;9.640;2022-11-03T14:49:01;13.10;64.80
71668;DHT22;59504;54.806;9.640;2022-11-03T14:51:20;13.00;64.70
71668;DHT22;59504;54.806;9.640;2022-11-03T14:53:39;13.00;64.70
71668;DHT22;59504;54.806;9.640;2022-11-03T14:55:58;13.10;64.80
71668;DHT22;59504;54.806;9.640;2022-11-03T14:58:17;13.10;64.90
71668;DHT22;59504;54.806;9.640;2022-11-03T15:00:36;12.90;64.70
71668;DHT22;59504;54.806;9.640;2022-11-03T15:02:56;13.00;64.80
71668;DHT22;59504;54.806;9.640;2022-11-03T15:05:15;13.00;64.80
71668;DHT22;59504;54.806;9.640;2022-11-03T15:07:53;12.80;64.70
71668;DHT22;59504;54.806;9.640;2022-11-03T15:10:13;12.80;64.70
71668;DHT22;59504;54.806;9.640;2022-11-03T15:12:32;12.80;64.70
71668;DHT22;59504;54.806;9.640;2022-11-03T15:14:51;12.80;64.70
71668;DHT22;59504;54.806;9.640;2022-11-03T15:17:10;12.70;64.60
71668;DHT22;59504;54.806;9.640;2022-11-03T15:19:29;12.70;64.80
71668;DHT22;59504;54.806;9.640;2022-11-03T15:21:49;12.70;64.70